Terminal Aerodrome Forecast
Issued by NWS

Home | Current Version | Previous Version | Text Only | Print | Product List | Glossary On
Versions: 1 2 3 4 5 6 7 8 9 10 11 12 13
000
FTUS43 KPAH 111100
TAFCGI
TAF
KCGI 111120Z 1112/1212 15004KT P6SM FEW050 SCT250
     FM120600 00000KT 5SM BR FEW060 SCT150=

USA.gov is the U.S. government's official web portal to all federal, state and local government web resources and services.